createdAt,value
2017-09-04T00:00:53.933Z,62.80
2017-09-04T00:03:24.351Z,62.70
2017-09-04T00:05:55.416Z,62.80
2017-09-04T00:08:25.708Z,62.80
2017-09-04T00:10:56.410Z,63.10
2017-09-04T00:13:26.717Z,62.70
2017-09-04T00:15:57.004Z,62.60
2017-09-04T00:18:27.398Z,62.50
2017-09-04T00:20:57.614Z,62.80
2017-09-04T00:27:00.694Z,62.50
2017-09-04T00:29:31.108Z,62.60
2017-09-04T00:32:01.322Z,62.60
2017-09-04T00:34:31.620Z,62.70
2017-09-04T00:37:01.690Z,62.70
2017-09-04T00:39:32.333Z,62.70
2017-09-04T00:42:02.602Z,62.40
2017-09-04T00:44:32.814Z,62.70
2017-09-04T00:47:03.011Z,62.60
2017-09-04T00:49:33.333Z,62.60
2017-09-04T00:52:03.565Z,62.30
2017-09-04T00:54:33.923Z,62.40
2017-09-04T00:57:04.243Z,62.30
2017-09-04T00:59:34.430Z,63.00
2017-09-04T01:02:04.726Z,62.40
2017-09-04T01:04:34.995Z,62.30
2017-09-04T01:07:05.461Z,62.30
2017-09-04T01:09:35.691Z,62.30
2017-09-04T01:12:05.995Z,62.30
2017-09-04T01:14:36.483Z,62.20
2017-09-04T01:17:07.756Z,62.30
2017-09-04T01:19:38.126Z,62.70
2017-09-04T01:22:08.579Z,62.30
2017-09-04T01:24:38.843Z,62.40
2017-09-04T01:27:09.143Z,62.50
2017-09-04T01:29:39.471Z,62.30
2017-09-04T01:32:09.916Z,62.40
2017-09-04T01:34:40.197Z,62.40
2017-09-04T01:37:10.287Z,62.10
2017-09-04T01:39:40.370Z,62.30
2017-09-04T01:43:14.446Z,62.40
2017-09-04T01:45:44.525Z,62.30
2017-09-04T01:48:15.709Z,62.30
2017-09-04T01:50:46.032Z,62.30
2017-09-04T01:53:16.287Z,62.20
2017-09-04T01:55:47.426Z,62.40
2017-09-04T01:58:17.727Z,62.40
2017-09-04T02:00:48.062Z,62.60
2017-09-04T02:03:18.423Z,62.60
2017-09-04T02:05:48.636Z,62.30
2017-09-04T02:08:18.921Z,62.30
2017-09-04T02:10:50.933Z,62.20
2017-09-04T02:13:21.394Z,61.90
2017-09-04T02:15:51.722Z,62.10
2017-09-04T02:18:21.983Z,62.10
2017-09-04T02:20:52.366Z,61.90
2017-09-04T02:23:22.631Z,61.90
2017-09-04T02:25:52.861Z,62.00
2017-09-04T02:28:23.171Z,62.20
2017-09-04T02:30:53.428Z,62.10
2017-09-04T02:33:23.715Z,62.00
2017-09-04T02:35:53.814Z,61.90
2017-09-04T02:38:24.221Z,62.00
2017-09-04T02:40:54.441Z,62.10
2017-09-04T02:43:25.824Z,62.00
2017-09-04T02:45:56.144Z,61.90
2017-09-04T02:48:26.330Z,61.90
2017-09-04T02:50:56.480Z,61.90
2017-09-04T02:53:26.794Z,61.90
2017-09-04T02:55:56.908Z,62.20
2017-09-04T02:58:27.039Z,61.90
2017-09-04T03:00:57.282Z,62.00
2017-09-04T03:03:27.616Z,61.80
2017-09-04T03:05:57.610Z,61.90
2017-09-04T03:08:27.720Z,61.80
2017-09-04T03:10:58.242Z,61.80
2017-09-04T03:13:28.715Z,61.80
2017-09-04T03:15:59.021Z,61.70
2017-09-04T03:18:29.350Z,61.90
2017-09-04T03:20:59.542Z,62.10
2017-09-04T03:23:29.845Z,62.10
2017-09-04T03:26:00.189Z,62.00
2017-09-04T03:28:30.607Z,62.10
2017-09-04T03:31:01.067Z,62.10
2017-09-04T03:33:31.385Z,61.70
2017-09-04T03:36:01.636Z,62.10
2017-09-04T03:38:31.918Z,62.20
2017-09-04T03:41:02.848Z,62.20
2017-09-04T03:43:33.482Z,62.40
2017-09-04T03:46:03.851Z,62.10
2017-09-04T03:48:34.173Z,62.20
2017-09-04T03:51:04.647Z,62.20
2017-09-04T03:53:35.179Z,62.00
2017-09-04T03:56:05.527Z,62.10
2017-09-04T03:58:36.281Z,62.10
2017-09-04T04:01:06.758Z,62.50
2017-09-04T04:03:37.851Z,62.50
2017-09-04T04:06:08.221Z,62.60
2017-09-04T04:08:38.714Z,62.20
2017-09-04T04:11:09.041Z,62.10
2017-09-04T04:13:39.231Z,62.00
2017-09-04T04:16:09.676Z,62.00
2017-09-04T04:18:39.903Z,62.00
2017-09-04T04:21:10.865Z,62.10
2017-09-04T04:23:41.124Z,62.00
2017-09-04T04:26:11.758Z,61.90
2017-09-04T04:28:42.112Z,62.00
2017-09-04T04:31:12.400Z,62.80
2017-09-04T04:33:42.696Z,62.30
2017-09-04T04:36:12.824Z,62.40
2017-09-04T04:38:43.083Z,62.20
2017-09-04T04:41:13.410Z,62.50
2017-09-04T04:43:44.019Z,62.20
2017-09-04T04:46:14.115Z,62.20
2017-09-04T04:48:44.401Z,62.00
2017-09-04T04:51:14.570Z,62.00
2017-09-04T04:53:44.594Z,62.00
2017-09-04T04:56:14.844Z,62.00
2017-09-04T04:58:44.957Z,62.10
2017-09-04T05:01:16.213Z,61.80
2017-09-04T05:03:46.530Z,62.10
2017-09-04T05:06:17.613Z,62.30
2017-09-04T05:08:47.778Z,62.20
2017-09-04T05:11:18.125Z,62.40
2017-09-04T05:13:48.302Z,63.00
2017-09-04T05:16:28.501Z,62.50
2017-09-04T05:19:13.059Z,62.90
2017-09-04T05:21:45.263Z,62.30
2017-09-04T05:24:15.591Z,62.40
2017-09-04T05:26:45.747Z,62.40
2017-09-04T05:29:16.185Z,62.10
2017-09-04T05:31:46.413Z,62.30
2017-09-04T05:34:16.879Z,62.30
2017-09-04T05:36:47.043Z,62.40
2017-09-04T05:39:17.366Z,62.90
2017-09-04T05:41:47.509Z,62.10
2017-09-04T05:44:17.818Z,62.20
2017-09-04T05:46:48.140Z,62.10
2017-09-04T05:49:18.482Z,62.20
2017-09-04T05:51:48.804Z,62.20
2017-09-04T05:54:19.111Z,62.50
2017-09-04T05:56:49.574Z,62.70
2017-09-04T05:59:19.890Z,63.40
2017-09-04T06:01:50.645Z,63.10
2017-09-04T06:04:21.029Z,63.10
2017-09-04T06:06:51.442Z,63.00
2017-09-04T06:09:21.891Z,62.70
2017-09-04T06:11:52.177Z,62.70
2017-09-04T06:14:22.522Z,62.70
2017-09-04T06:16:52.906Z,63.40
2017-09-04T06:19:23.186Z,63.40
2017-09-04T06:21:53.618Z,63.90
2017-09-04T06:24:24.610Z,63.20
2017-09-04T06:26:54.767Z,63.20
2017-09-04T06:29:25.118Z,63.70
2017-09-04T06:31:55.990Z,64.00
2017-09-04T06:34:26.290Z,63.90
2017-09-04T06:36:56.843Z,63.90
2017-09-04T06:39:27.947Z,64.10
2017-09-04T06:41:58.150Z,64.00
2017-09-04T06:44:28.516Z,64.00
2017-09-04T06:46:58.744Z,65.00
2017-09-04T06:49:29.165Z,64.80
2017-09-04T06:51:59.402Z,65.00
2017-09-04T06:54:29.763Z,65.20
2017-09-04T06:57:00.204Z,65.80
2017-09-04T06:59:31.673Z,65.40
2017-09-04T07:02:02.059Z,65.10
2017-09-04T07:04:32.431Z,65.30
2017-09-04T07:07:02.689Z,65.50
2017-09-04T07:09:32.924Z,65.90
2017-09-04T07:12:03.575Z,66.60
2017-09-04T07:14:34.701Z,66.60
2017-09-04T07:17:09.739Z,66.00
2017-09-04T07:19:40.702Z,66.30
2017-09-04T07:22:10.901Z,66.40
2017-09-04T07:24:42.085Z,66.40
2017-09-04T07:27:13.248Z,66.40
2017-09-04T07:29:43.392Z,67.00
2017-09-04T07:32:14.547Z,67.60
2017-09-04T07:34:45.738Z,67.60
2017-09-04T07:37:16.124Z,66.60
2017-09-04T07:39:46.530Z,66.10
2017-09-04T07:42:16.720Z,66.50
2017-09-04T07:44:47.042Z,66.20
2017-09-04T07:47:17.342Z,66.40
2017-09-04T07:49:47.566Z,66.50
2017-09-04T07:52:17.759Z,66.60
2017-09-04T07:54:48.902Z,66.70
2017-09-04T07:57:19.839Z,67.00
2017-09-04T07:59:50.173Z,67.00
2017-09-04T08:02:20.453Z,66.50
2017-09-04T08:04:51.466Z,66.50
2017-09-04T08:07:21.701Z,66.40
2017-09-04T08:09:52.050Z,66.40
2017-09-04T08:12:22.491Z,66.10
2017-09-04T08:14:52.800Z,65.70
2017-09-04T08:17:23.121Z,66.40
2017-09-04T08:19:53.316Z,65.70
2017-09-04T08:22:23.712Z,66.70
2017-09-04T08:24:54.155Z,66.00
2017-09-04T08:27:24.377Z,66.50
2017-09-04T08:29:54.514Z,65.90
2017-09-04T08:32:24.781Z,67.50
2017-09-04T08:34:55.810Z,66.60
2017-09-04T08:37:26.489Z,66.50
2017-09-04T08:39:56.543Z,68.30
2017-09-04T08:42:27.694Z,68.40
2017-09-04T08:44:58.712Z,68.50
2017-09-04T08:47:28.963Z,68.80
2017-09-04T08:49:59.344Z,69.10
2017-09-04T08:52:29.522Z,69.00
2017-09-04T08:54:59.854Z,69.00
2017-09-04T08:57:30.277Z,67.60
2017-09-04T09:00:00.860Z,67.70
2017-09-04T09:02:31.344Z,67.60
2017-09-04T09:05:01.529Z,68.20
2017-09-04T09:07:32.033Z,67.90
2017-09-04T09:10:02.632Z,68.20
2017-09-04T09:12:33.099Z,68.00
2017-09-04T09:15:03.677Z,67.90
2017-09-04T09:17:35.136Z,68.70
2017-09-04T09:20:05.442Z,68.70
2017-09-04T09:22:35.974Z,67.90
2017-09-04T09:25:06.773Z,67.80
2017-09-04T09:27:37.105Z,68.40
2017-09-04T09:30:07.474Z,67.80
2017-09-04T09:32:38.039Z,67.70
2017-09-04T09:35:08.508Z,67.10
2017-09-04T09:37:38.966Z,67.10
2017-09-04T09:40:09.443Z,68.20
2017-09-04T09:42:39.806Z,67.90
2017-09-04T09:45:10.090Z,67.50
2017-09-04T09:47:40.427Z,67.30
2017-09-04T09:50:10.783Z,67.60
2017-09-04T09:52:41.231Z,67.40
2017-09-04T09:55:11.542Z,67.00
2017-09-04T09:57:41.781Z,67.50
2017-09-04T10:00:12.014Z,67.20
2017-09-04T10:02:42.430Z,67.60
2017-09-04T10:05:12.534Z,67.00
2017-09-04T10:07:42.688Z,66.90
2017-09-04T10:10:13.118Z,67.20
2017-09-04T10:12:43.561Z,66.60
2017-09-04T10:15:14.278Z,66.90
2017-09-04T10:17:44.841Z,66.80
2017-09-04T10:20:15.379Z,66.60
2017-09-04T10:22:45.573Z,66.70
2017-09-04T10:25:16.714Z,66.30
2017-09-04T10:27:47.130Z,66.00
2017-09-04T10:30:17.705Z,66.50
2017-09-04T10:32:48.192Z,66.60
2017-09-04T10:35:18.734Z,66.40
2017-09-04T10:37:49.135Z,66.40
2017-09-04T10:40:19.493Z,66.40
2017-09-04T10:42:49.901Z,66.30
2017-09-04T10:45:20.828Z,66.40
2017-09-04T10:47:51.369Z,66.20
2017-09-04T10:50:22.437Z,65.90
2017-09-04T10:52:52.731Z,65.70
2017-09-04T10:55:23.084Z,65.80
2017-09-04T10:57:53.918Z,65.80
2017-09-04T11:00:24.308Z,66.00
2017-09-04T11:02:54.566Z,65.90
2017-09-04T11:05:25.059Z,65.20
2017-09-04T11:07:55.540Z,65.40
2017-09-04T11:10:25.968Z,65.20
2017-09-04T11:12:56.336Z,65.30
2017-09-04T11:15:26.718Z,65.20
2017-09-04T11:17:57.944Z,65.70
2017-09-04T11:20:28.314Z,65.10
2017-09-04T11:22:58.576Z,65.00
2017-09-04T11:25:29.096Z,64.80
2017-09-04T11:27:59.650Z,63.90
2017-09-04T11:30:30.223Z,64.30
2017-09-04T11:33:00.603Z,63.90
2017-09-04T11:35:30.828Z,64.90
2017-09-04T11:38:01.153Z,64.10
2017-09-04T11:40:32.139Z,63.10
2017-09-04T11:43:03.367Z,62.70
2017-09-04T11:45:33.661Z,62.90
2017-09-04T11:48:03.923Z,62.20
2017-09-04T11:50:34.374Z,62.50
2017-09-04T11:53:04.928Z,62.40
2017-09-04T11:55:35.248Z,61.70
2017-09-04T11:58:05.701Z,60.90
2017-09-04T12:00:35.977Z,61.30
2017-09-04T12:03:06.507Z,61.20
2017-09-04T12:05:36.825Z,60.80
2017-09-04T12:08:07.084Z,57.40
2017-09-04T12:10:37.842Z,52.80
2017-09-04T12:13:08.126Z,53.90
2017-09-04T12:15:39.298Z,54.60
2017-09-04T12:18:09.748Z,54.00
2017-09-04T12:20:40.170Z,54.10
2017-09-04T12:23:10.574Z,54.10
2017-09-04T12:25:40.990Z,54.20
2017-09-04T12:28:11.579Z,54.70
2017-09-04T12:30:41.915Z,54.00
2017-09-04T12:33:12.226Z,54.30
2017-09-04T12:35:42.886Z,54.60
2017-09-04T12:38:13.382Z,54.20
2017-09-04T12:40:43.832Z,54.00
2017-09-04T12:43:14.234Z,54.50
2017-09-04T12:45:44.744Z,54.90
2017-09-04T12:48:15.318Z,54.80
2017-09-04T12:50:45.801Z,55.20
2017-09-04T12:53:16.478Z,54.10
2017-09-04T12:55:47.250Z,54.70
2017-09-04T12:58:17.922Z,54.20
2017-09-04T13:00:48.750Z,54.00
2017-09-04T13:03:19.231Z,53.90
2017-09-04T13:05:49.367Z,53.60
2017-09-04T13:08:20.382Z,54.20
2017-09-04T13:10:55.011Z,54.30
2017-09-04T13:13:25.541Z,54.80
2017-09-04T13:16:00.159Z,52.20
2017-09-04T13:18:34.982Z,52.40
2017-09-04T13:21:16.371Z,52.80
2017-09-04T13:23:50.992Z,53.40
2017-09-04T13:26:25.832Z,53.70
2017-09-04T13:29:00.446Z,54.10
2017-09-04T13:31:35.076Z,54.00
2017-09-04T13:34:10.318Z,54.00
2017-09-04T13:36:45.147Z,52.20
2017-09-04T13:39:19.771Z,53.00
2017-09-04T13:41:54.801Z,53.00
2017-09-04T13:44:30.751Z,52.20
2017-09-04T13:47:05.490Z,52.90
2017-09-04T13:49:36.018Z,53.30
2017-09-04T13:52:07.416Z,53.50
2017-09-04T13:54:41.990Z,54.00
2017-09-04T13:57:13.702Z,54.10
2017-09-04T13:59:44.129Z,54.40
2017-09-04T14:02:16.209Z,54.40
2017-09-04T14:04:47.042Z,53.90
2017-09-04T14:07:18.208Z,54.20
2017-09-04T14:09:48.831Z,54.20
2017-09-04T14:12:19.476Z,53.60
2017-09-04T14:14:49.899Z,53.50
2017-09-04T14:17:20.502Z,53.20
2017-09-04T14:19:51.648Z,52.70
2017-09-04T14:22:22.011Z,53.60
2017-09-04T14:24:52.520Z,54.00
2017-09-04T14:27:22.955Z,53.00
2017-09-04T14:29:53.362Z,54.30
2017-09-04T14:32:24.626Z,54.00
2017-09-04T14:34:55.136Z,54.30
2017-09-04T14:37:25.728Z,54.30
2017-09-04T14:39:56.037Z,53.90
2017-09-04T14:42:28.111Z,54.30
2017-09-04T14:44:58.715Z,54.30
2017-09-04T14:47:29.268Z,54.40
2017-09-04T14:49:59.680Z,54.50
2017-09-04T14:52:30.262Z,54.60
2017-09-04T14:55:00.740Z,54.70
2017-09-04T14:57:31.298Z,54.80
2017-09-04T15:00:02.127Z,54.80
2017-09-04T15:02:32.749Z,54.70
2017-09-04T15:05:03.649Z,54.80
2017-09-04T15:07:34.392Z,54.90
2017-09-04T15:10:04.755Z,54.50
2017-09-04T15:12:35.118Z,54.70
2017-09-04T15:15:05.638Z,54.70
2017-09-04T15:17:36.133Z,54.30
2017-09-04T15:20:06.610Z,54.70
2017-09-04T15:22:37.869Z,54.60
2017-09-04T15:25:08.816Z,54.60
2017-09-04T15:27:40.715Z,54.90
2017-09-04T15:30:11.327Z,55.00
2017-09-04T15:32:41.772Z,54.90
2017-09-04T15:35:12.274Z,54.70
2017-09-04T15:37:43.540Z,55.20
2017-09-04T15:40:14.056Z,55.30
2017-09-04T15:42:44.832Z,55.50
2017-09-04T15:45:15.699Z,55.70
2017-09-04T15:47:46.742Z,55.20
2017-09-04T15:50:17.153Z,55.80
2017-09-04T15:52:47.713Z,56.00
2017-09-04T15:55:19.054Z,55.90
2017-09-04T15:57:49.660Z,56.20
2017-09-04T16:00:21.099Z,56.10
2017-09-04T16:02:52.442Z,56.00
2017-09-04T16:05:22.966Z,56.60
2017-09-04T16:07:53.518Z,56.90
2017-09-04T16:10:24.124Z,56.90
2017-09-04T16:12:54.671Z,56.80
2017-09-04T16:15:26.275Z,58.30
2017-09-04T16:17:56.880Z,57.60
2017-09-04T16:20:27.371Z,57.60
2017-09-04T16:22:57.836Z,57.60
2017-09-04T16:25:28.217Z,57.10
2017-09-04T16:27:59.747Z,57.30
2017-09-04T16:30:29.960Z,57.70
2017-09-04T16:33:00.425Z,56.70
2017-09-04T16:35:31.590Z,57.30
2017-09-04T16:38:02.199Z,57.60
2017-09-04T16:40:32.615Z,57.30
2017-09-04T16:43:03.242Z,58.30
2017-09-04T16:45:33.719Z,58.30
2017-09-04T16:48:04.184Z,57.90
2017-09-04T16:50:34.672Z,57.60
2017-09-04T16:53:06.410Z,58.20
2017-09-04T16:55:37.810Z,58.20
2017-09-04T16:58:08.482Z,58.20
2017-09-04T17:00:38.806Z,58.30
2017-09-04T17:03:09.190Z,58.30
2017-09-04T17:05:39.559Z,58.20
2017-09-04T17:08:10.096Z,58.20
2017-09-04T17:10:40.973Z,58.50
2017-09-04T17:13:11.630Z,58.40
2017-09-04T17:15:42.248Z,58.20
2017-09-04T17:18:13.186Z,58.80
2017-09-04T17:20:43.574Z,58.00
2017-09-04T17:23:13.988Z,58.60
2017-09-04T17:25:44.400Z,58.40
2017-09-04T17:28:15.147Z,59.00
2017-09-04T17:30:45.569Z,59.00
2017-09-04T17:33:16.906Z,58.90
2017-09-04T17:35:47.272Z,59.10
2017-09-04T17:38:18.461Z,58.60
2017-09-04T17:40:49.087Z,59.30
2017-09-04T17:43:19.629Z,59.30
2017-09-04T17:45:50.825Z,59.30
2017-09-04T17:48:21.159Z,59.20
2017-09-04T17:50:51.638Z,59.30
2017-09-04T17:53:22.021Z,59.20
2017-09-04T17:55:52.415Z,59.00
2017-09-04T17:58:22.978Z,59.00
2017-09-04T18:00:53.961Z,59.20
2017-09-04T18:03:24.933Z,59.10
2017-09-04T18:05:55.394Z,58.90
2017-09-04T18:08:26.914Z,59.00
2017-09-04T18:10:58.477Z,59.00
2017-09-04T18:13:29.532Z,58.70
2017-09-04T18:16:00.108Z,58.80
2017-09-04T18:18:30.652Z,58.80
2017-09-04T18:21:00.977Z,58.80
2017-09-04T18:23:31.409Z,58.90
2017-09-04T18:26:01.666Z,58.80
2017-09-04T18:28:32.738Z,58.60
2017-09-04T18:31:03.211Z,59.00
2017-09-04T18:33:33.804Z,58.50
2017-09-04T18:36:04.174Z,58.60
2017-09-04T18:38:34.612Z,58.80
2017-09-04T18:41:05.634Z,58.30
2017-09-04T18:43:35.944Z,58.30
2017-09-04T18:46:06.429Z,58.50
2017-09-04T18:48:36.858Z,58.40
2017-09-04T18:51:07.343Z,58.30
2017-09-04T18:53:37.895Z,58.30
2017-09-04T18:56:09.834Z,57.70
2017-09-04T18:58:40.360Z,57.70
2017-09-04T19:01:10.734Z,58.70
2017-09-04T19:03:41.178Z,60.30
2017-09-04T19:06:11.866Z,59.70
2017-09-04T19:08:42.584Z,59.00
2017-09-04T19:11:12.811Z,58.60
2017-09-04T19:13:43.121Z,58.40
2017-09-04T19:16:13.610Z,58.30
2017-09-04T19:18:44.099Z,58.20
2017-09-04T19:21:14.700Z,58.20
2017-09-04T19:23:45.223Z,58.00
2017-09-04T19:26:15.738Z,58.20
2017-09-04T19:28:46.960Z,58.20
2017-09-04T19:31:18.216Z,58.20
2017-09-04T19:33:50.513Z,58.20
2017-09-04T19:36:20.863Z,58.40
2017-09-04T19:38:51.599Z,58.40
2017-09-04T19:41:21.760Z,58.20
2017-09-04T19:43:52.210Z,58.20
2017-09-04T19:46:22.572Z,58.10
2017-09-04T19:48:53.578Z,58.10
2017-09-04T19:51:24.059Z,58.00
2017-09-04T19:53:54.514Z,57.90
2017-09-04T19:56:26.124Z,58.20
2017-09-04T19:58:56.588Z,58.20
2017-09-04T20:01:27.925Z,58.00
2017-09-04T20:03:58.757Z,58.00
2017-09-04T20:06:30.081Z,58.20
2017-09-04T20:09:01.366Z,58.20
2017-09-04T20:11:31.764Z,58.10
2017-09-04T20:14:02.993Z,58.30
2017-09-04T20:16:33.256Z,57.90
2017-09-04T20:19:03.864Z,58.10
2017-09-04T20:21:35.133Z,57.70
2017-09-04T20:24:05.885Z,57.90
2017-09-04T20:26:36.773Z,58.50
2017-09-04T20:29:08.138Z,58.10
2017-09-04T20:31:38.693Z,58.60
2017-09-04T20:34:09.977Z,57.90
2017-09-04T20:36:40.518Z,58.50
2017-09-04T20:39:11.152Z,57.70
2017-09-04T20:41:41.479Z,57.80
2017-09-04T20:44:11.678Z,57.60
2017-09-04T20:46:41.841Z,57.30
2017-09-04T20:49:13.099Z,57.40
2017-09-04T20:51:43.377Z,57.50
2017-09-04T20:54:15.460Z,57.70
2017-09-04T20:56:45.835Z,57.70
2017-09-04T20:59:16.319Z,57.50
2017-09-04T21:01:46.629Z,57.60
2017-09-04T21:04:17.001Z,58.00
2017-09-04T21:06:47.477Z,57.60
2017-09-04T21:09:17.947Z,57.60
2017-09-04T21:11:48.878Z,57.50
2017-09-04T21:14:19.523Z,57.30
2017-09-04T21:16:50.025Z,58.30
2017-09-04T21:19:20.506Z,57.30
2017-09-04T21:21:51.129Z,57.50
2017-09-04T21:24:21.516Z,57.50
2017-09-04T21:26:52.022Z,57.30
2017-09-04T21:29:22.497Z,57.30
2017-09-04T21:31:52.973Z,57.20
2017-09-04T21:34:23.092Z,57.40
2017-09-04T21:36:53.435Z,57.30
2017-09-04T21:39:23.783Z,57.50
2017-09-04T21:41:54.089Z,57.20
2017-09-04T21:44:24.521Z,57.20
2017-09-04T21:46:54.751Z,57.00
2017-09-04T21:49:25.227Z,57.80
2017-09-04T21:51:55.502Z,57.50
2017-09-04T21:54:25.788Z,57.00
2017-09-04T21:56:56.260Z,57.80
2017-09-04T21:59:26.616Z,57.60
2017-09-04T22:01:56.938Z,57.10
2017-09-04T22:04:27.232Z,57.70
2017-09-04T22:06:57.711Z,57.60
2017-09-04T22:09:27.889Z,57.10
2017-09-04T22:11:58.315Z,57.60
2017-09-04T22:14:28.465Z,57.50
2017-09-04T22:16:58.679Z,57.20
2017-09-04T22:19:29.081Z,57.40
2017-09-04T22:22:01.034Z,56.80
2017-09-04T22:24:31.463Z,57.40
2017-09-04T22:27:01.956Z,57.30
2017-09-04T22:29:32.159Z,57.00
2017-09-04T22:32:02.529Z,57.40
2017-09-04T22:34:32.921Z,57.20
2017-09-04T22:37:03.390Z,57.10
2017-09-04T22:39:33.607Z,57.00
2017-09-04T22:42:35.149Z,57.30
2017-09-04T22:45:06.243Z,57.60
2017-09-04T22:47:36.644Z,57.00
2017-09-04T22:50:06.915Z,57.20
2017-09-04T22:52:38.059Z,56.80
2017-09-04T22:55:08.375Z,56.80
2017-09-04T22:57:38.701Z,57.20
2017-09-04T23:00:09.287Z,57.10
2017-09-04T23:02:39.953Z,57.00
2017-09-04T23:05:10.245Z,56.90
2017-09-04T23:07:40.597Z,56.80
2017-09-04T23:10:11.093Z,57.30
2017-09-04T23:12:41.347Z,57.30
2017-09-04T23:15:11.710Z,57.00
2017-09-04T23:17:42.125Z,57.00
2017-09-04T23:20:12.446Z,57.30
2017-09-04T23:22:43.041Z,57.40
2017-09-04T23:25:13.403Z,56.80
2017-09-04T23:27:44.950Z,57.00
2017-09-04T23:30:15.189Z,57.10
2017-09-04T23:32:45.502Z,56.80
2017-09-04T23:35:15.913Z,57.50
2017-09-04T23:37:47.219Z,57.50
2017-09-04T23:40:18.221Z,57.20
2017-09-04T23:42:48.567Z,57.00
2017-09-04T23:45:18.803Z,57.00
2017-09-04T23:47:49.200Z,57.20
2017-09-04T23:50:19.486Z,57.40
2017-09-04T23:52:49.812Z,57.30
2017-09-04T23:55:20.166Z,57.20
2017-09-04T23:57:50.422Z,57.20
